N538TW KPBI-KORL
Flight info
| Callsign | N538TW |
|---|---|
| Flight time | 0h 44m |
| Altitude | 22000 |
| Route | TBIRD7 CHEFS MUNGI1 |
| Aircraft | C750/M-SBDE3FGHRWXY/S |
Departure
| Time | 2026-05-04 23:56 |
|---|---|
| Airport | Palm Beach International Airport (KPBI) |
Arrival
| Time | 2026-05-05 00:40 |
|---|---|
| Airport | Orlando Executive Airport (KORL) |
| Time | Latitude | Longitude | Altitude | Speed | Heading |
|---|---|---|---|---|---|
| 2026-05-04 23:31 | 26.67907 | -80.08222 | 18 ft | 0 kts | 255° |
| 2026-05-04 23:49 | 26.67907 | -80.08227 | 20 ft | 1 kts | 282° |
| 2026-05-04 23:49 | 26.67912 | -80.08229 | 20 ft | 1 kts | 330° |
| 2026-05-04 23:49 | 26.67919 | -80.08230 | 21 ft | 1 kts | 347° |
| 2026-05-04 23:49 | 26.67933 | -80.08236 | 18 ft | 3 kts | 332° |
| 2026-05-04 23:50 | 26.67959 | -80.08253 | 18 ft | 5 kts | 302° |
| 2026-05-04 23:50 | 26.67966 | -80.08319 | 18 ft | 14 kts | 274° |
| 2026-05-04 23:50 | 26.68006 | -80.08423 | 18 ft | 7 kts | 324° |
| 2026-05-04 23:50 | 26.68031 | -80.08441 | 18 ft | 6 kts | 324° |
| 2026-05-04 23:51 | 26.68072 | -80.08483 | 20 ft | 12 kts | 316° |
| 2026-05-04 23:51 | 26.68113 | -80.08596 | 18 ft | 21 kts | 272° |
| 2026-05-04 23:51 | 26.68122 | -80.08785 | 18 ft | 27 kts | 271° |
| 2026-05-04 23:51 | 26.68131 | -80.09014 | 18 ft | 31 kts | 274° |
| 2026-05-04 23:52 | 26.68142 | -80.09269 | 18 ft | 35 kts | 275° |
| 2026-05-04 23:52 | 26.68153 | -80.09538 | 18 ft | 31 kts | 269° |
| 2026-05-04 23:52 | 26.68163 | -80.09763 | 20 ft | 28 kts | 274° |
| 2026-05-04 23:52 | 26.68172 | -80.09977 | 18 ft | 27 kts | 273° |
| 2026-05-04 23:53 | 26.68183 | -80.10207 | 18 ft | 33 kts | 273° |
| 2026-05-04 23:53 | 26.68195 | -80.10482 | 18 ft | 36 kts | 272° |
| 2026-05-04 23:53 | 26.68204 | -80.10681 | 18 ft | 19 kts | 270° |
| 2026-05-04 23:53 | 26.68208 | -80.10770 | 18 ft | 3 kts | 274° |
| 2026-05-04 23:54 | 26.68209 | -80.10775 | 18 ft | 0 kts | 274° |
| 2026-05-04 23:54 | 26.68209 | -80.10786 | 18 ft | 6 kts | 274° |
| 2026-05-04 23:55 | 26.68254 | -80.10832 | 18 ft | 11 kts | 29° |
| 2026-05-04 23:55 | 26.68319 | -80.10791 | 18 ft | 12 kts | 79° |
| 2026-05-04 23:55 | 26.68268 | -80.09548 | 46 ft | 131 kts | 90° |
| 2026-05-04 23:56 | 26.68179 | -80.08576 | 636 ft | 122 kts | 97° |
| 2026-05-04 23:56 | 26.68011 | -80.07647 | 1392 ft | 125 kts | 97° |
| 2026-05-04 23:56 | 26.68112 | -80.06612 | 1790 ft | 150 kts | 80° |
| 2026-05-04 23:56 | 26.68323 | -80.05347 | 2181 ft | 179 kts | 71° |
| 2026-05-04 23:57 | 26.68934 | -80.04038 | 2594 ft | 202 kts | 63° |
| 2026-05-04 23:57 | 26.69588 | -80.02606 | 3270 ft | 217 kts | 66° |
| 2026-05-04 23:57 | 26.70276 | -80.00993 | 3863 ft | 242 kts | 66° |
| 2026-05-04 23:57 | 26.71058 | -79.99263 | 4725 ft | 252 kts | 60° |
| 2026-05-04 23:58 | 26.72349 | -79.97863 | 5495 ft | 269 kts | 33° |
| 2026-05-04 23:58 | 26.74126 | -79.97142 | 6390 ft | 276 kts | 11° |
| 2026-05-04 23:58 | 26.76022 | -79.96847 | 7254 ft | 282 kts | 4° |
| 2026-05-04 23:58 | 26.77966 | -79.97272 | 8144 ft | 284 kts | 332° |
| 2026-05-04 23:59 | 26.79487 | -79.98613 | 9286 ft | 277 kts | 306° |
| 2026-05-04 23:59 | 26.80350 | -80.00517 | 10233 ft | 276 kts | 288° |
| 2026-05-04 23:59 | 26.80972 | -80.02572 | 10950 ft | 286 kts | 286° |
| 2026-05-04 23:59 | 26.81634 | -80.04793 | 11031 ft | 317 kts | 287° |
| 2026-05-05 00:00 | 26.82392 | -80.07237 | 11035 ft | 347 kts | 287° |
| 2026-05-05 00:00 | 26.82654 | -80.08070 | 11028 ft | 355 kts | 287° |
| 2026-05-05 00:00 | 26.84091 | -80.12688 | 11023 ft | 390 kts | 287° |
| 2026-05-05 00:00 | 26.84978 | -80.15573 | 11221 ft | 392 kts | 287° |
| 2026-05-05 00:01 | 26.85842 | -80.18362 | 12476 ft | 364 kts | 288° |
| 2026-05-05 00:01 | 26.86647 | -80.20967 | 13626 ft | 351 kts | 288° |
| 2026-05-05 00:01 | 26.87445 | -80.23571 | 14225 ft | 356 kts | 288° |
| 2026-05-05 00:01 | 26.88249 | -80.26189 | 14926 ft | 357 kts | 288° |
| 2026-05-05 00:02 | 26.89062 | -80.28823 | 15642 ft | 358 kts | 287° |
| 2026-05-05 00:02 | 26.89883 | -80.31457 | 16362 ft | 359 kts | 288° |
| 2026-05-05 00:02 | 26.91073 | -80.33933 | 17036 ft | 365 kts | 301° |
| 2026-05-05 00:02 | 26.92130 | -80.35408 | 17557 ft | 368 kts | 309° |
| 2026-05-05 00:03 | 26.94087 | -80.37295 | 18308 ft | 377 kts | 321° |
| 2026-05-05 00:03 | 26.96435 | -80.38687 | 18906 ft | 388 kts | 332° |
| 2026-05-05 00:03 | 26.99013 | -80.39804 | 19035 ft | 407 kts | 334° |
| 2026-05-05 00:03 | 27.02630 | -80.41341 | 19037 ft | 432 kts | 334° |
| 2026-05-05 00:04 | 27.05491 | -80.42573 | 19041 ft | 446 kts | 334° |
| 2026-05-05 00:04 | 27.07452 | -80.43420 | 19040 ft | 448 kts | 334° |
| 2026-05-05 00:04 | 27.10376 | -80.44682 | 19038 ft | 451 kts | 334° |
| 2026-05-05 00:04 | 27.13185 | -80.46204 | 19017 ft | 447 kts | 326° |
| 2026-05-05 00:05 | 27.15764 | -80.48137 | 19033 ft | 444 kts | 319° |
| 2026-05-05 00:05 | 27.18071 | -80.50419 | 19023 ft | 441 kts | 311° |
| 2026-05-05 00:05 | 27.20712 | -80.53852 | 19032 ft | 439 kts | 306° |
| 2026-05-05 00:05 | 27.22024 | -80.55640 | 19036 ft | 439 kts | 307° |
| 2026-05-05 00:06 | 27.23984 | -80.58269 | 19040 ft | 439 kts | 307° |
| 2026-05-05 00:06 | 27.25936 | -80.60903 | 19039 ft | 439 kts | 307° |
| 2026-05-05 00:06 | 27.27879 | -80.63557 | 19036 ft | 439 kts | 306° |
| 2026-05-05 00:06 | 27.29819 | -80.66205 | 19037 ft | 439 kts | 306° |
| 2026-05-05 00:07 | 27.31741 | -80.68812 | 19037 ft | 439 kts | 307° |
| 2026-05-05 00:07 | 27.33698 | -80.71451 | 19035 ft | 439 kts | 307° |
| 2026-05-05 00:07 | 27.35869 | -80.73881 | 19015 ft | 443 kts | 315° |
| 2026-05-05 00:07 | 27.38335 | -80.75983 | 19019 ft | 447 kts | 322° |
| 2026-05-05 00:08 | 27.41051 | -80.77711 | 19018 ft | 451 kts | 330° |
| 2026-05-05 00:08 | 27.43966 | -80.79057 | 19032 ft | 453 kts | 335° |
| 2026-05-05 00:08 | 27.46917 | -80.80320 | 19037 ft | 454 kts | 334° |
| 2026-05-05 00:08 | 27.49856 | -80.81609 | 19041 ft | 454 kts | 334° |
| 2026-05-05 00:09 | 27.52802 | -80.82898 | 19043 ft | 454 kts | 334° |
| 2026-05-05 00:09 | 27.55753 | -80.84169 | 19049 ft | 454 kts | 335° |
| 2026-05-05 00:09 | 27.58548 | -80.85548 | 18855 ft | 421 kts | 330° |
| 2026-05-05 00:09 | 27.61099 | -80.86899 | 18609 ft | 390 kts | 330° |
| 2026-05-05 00:10 | 27.63504 | -80.88156 | 18364 ft | 375 kts | 330° |
| 2026-05-05 00:10 | 27.65874 | -80.89397 | 18103 ft | 370 kts | 330° |
| 2026-05-05 00:10 | 27.68144 | -80.90581 | 17827 ft | 351 kts | 330° |
| 2026-05-05 00:10 | 27.70337 | -80.91733 | 17550 ft | 349 kts | 330° |
| 2026-05-05 00:11 | 27.72547 | -80.92900 | 17293 ft | 351 kts | 330° |
| 2026-05-05 00:11 | 27.74765 | -80.94062 | 17042 ft | 352 kts | 331° |
| 2026-05-05 00:11 | 27.76986 | -80.95224 | 16801 ft | 351 kts | 331° |
| 2026-05-05 00:11 | 27.79206 | -80.96390 | 16619 ft | 353 kts | 331° |
| 2026-05-05 00:12 | 27.81438 | -80.97565 | 16244 ft | 354 kts | 332° |
| 2026-05-05 00:12 | 27.83666 | -80.98734 | 15829 ft | 352 kts | 332° |
| 2026-05-05 00:12 | 27.85876 | -80.99895 | 15417 ft | 350 kts | 332° |
| 2026-05-05 00:12 | 27.88081 | -81.01056 | 15005 ft | 349 kts | 333° |
| 2026-05-05 00:13 | 27.90275 | -81.02211 | 14599 ft | 347 kts | 333° |
| 2026-05-05 00:13 | 27.92454 | -81.03357 | 14191 ft | 345 kts | 333° |
| 2026-05-05 00:13 | 27.94670 | -81.04396 | 13768 ft | 345 kts | 339° |
| 2026-05-05 00:13 | 27.96918 | -81.05327 | 13348 ft | 344 kts | 337° |
| 2026-05-05 00:14 | 27.99142 | -81.06287 | 12939 ft | 341 kts | 337° |
| 2026-05-05 00:14 | 28.01322 | -81.07223 | 12543 ft | 339 kts | 338° |
| 2026-05-05 00:14 | 28.03565 | -81.08166 | 12150 ft | 338 kts | 337° |
| 2026-05-05 00:14 | 28.05790 | -81.09107 | 12000 ft | 359 kts | 337° |
| 2026-05-05 00:15 | 28.08203 | -81.10165 | 12007 ft | 384 kts | 336° |
| 2026-05-05 00:15 | 28.10798 | -81.11311 | 12002 ft | 399 kts | 337° |
| 2026-05-05 00:15 | 28.13225 | -81.12358 | 11862 ft | 362 kts | 338° |
| 2026-05-05 00:15 | 28.15445 | -81.13311 | 11402 ft | 307 kts | 336° |
| 2026-05-05 00:16 | 28.17294 | -81.14112 | 9724 ft | 274 kts | 336° |
| 2026-05-05 00:16 | 28.19071 | -81.14903 | 7525 ft | 275 kts | 335° |
| 2026-05-05 00:16 | 28.20961 | -81.15740 | 6335 ft | 289 kts | 336° |
| 2026-05-05 00:16 | 28.22725 | -81.16496 | 5992 ft | 259 kts | 336° |
| 2026-05-05 00:17 | 28.24439 | -81.17245 | 6002 ft | 275 kts | 336° |
| 2026-05-05 00:17 | 28.26230 | -81.18034 | 6010 ft | 275 kts | 336° |
| 2026-05-05 00:17 | 28.28025 | -81.18816 | 6012 ft | 276 kts | 336° |
| 2026-05-05 00:17 | 28.29578 | -81.20012 | 5943 ft | 270 kts | 307° |
| 2026-05-05 00:18 | 28.30242 | -81.21949 | 5954 ft | 266 kts | 274° |
| 2026-05-05 00:18 | 28.30178 | -81.24042 | 6027 ft | 266 kts | 264° |
| 2026-05-05 00:18 | 28.29992 | -81.26121 | 6021 ft | 263 kts | 263° |
| 2026-05-05 00:18 | 28.29799 | -81.28199 | 6015 ft | 265 kts | 263° |
| 2026-05-05 00:19 | 28.29608 | -81.30262 | 6023 ft | 262 kts | 263° |
| 2026-05-05 00:19 | 28.29425 | -81.32326 | 6023 ft | 264 kts | 263° |
| 2026-05-05 00:19 | 28.29241 | -81.34403 | 6019 ft | 265 kts | 263° |
| 2026-05-05 00:19 | 28.29059 | -81.36481 | 6017 ft | 266 kts | 263° |
| 2026-05-05 00:20 | 28.28874 | -81.38565 | 6015 ft | 265 kts | 263° |
| 2026-05-05 00:20 | 28.28686 | -81.40651 | 6015 ft | 265 kts | 263° |
| 2026-05-05 00:20 | 28.28502 | -81.42728 | 6016 ft | 266 kts | 263° |
| 2026-05-05 00:20 | 28.28317 | -81.44813 | 6014 ft | 264 kts | 263° |
| 2026-05-05 00:21 | 28.28140 | -81.46880 | 6011 ft | 263 kts | 263° |
| 2026-05-05 00:21 | 28.27966 | -81.48920 | 5617 ft | 259 kts | 263° |
| 2026-05-05 00:21 | 28.27866 | -81.50989 | 4831 ft | 266 kts | 275° |
| 2026-05-05 00:21 | 28.28614 | -81.52904 | 4063 ft | 273 kts | 311° |
| 2026-05-05 00:22 | 28.30131 | -81.54207 | 3342 ft | 277 kts | 331° |
| 2026-05-05 00:22 | 28.31805 | -81.55284 | 3023 ft | 268 kts | 334° |
| 2026-05-05 00:22 | 28.33351 | -81.56282 | 3004 ft | 244 kts | 333° |
| 2026-05-05 00:22 | 28.34767 | -81.57197 | 2990 ft | 224 kts | 333° |
| 2026-05-05 00:23 | 28.36081 | -81.58058 | 2984 ft | 214 kts | 333° |
| 2026-05-05 00:23 | 28.37402 | -81.58769 | 2963 ft | 207 kts | 348° |
| 2026-05-05 00:23 | 28.38808 | -81.59044 | 2974 ft | 205 kts | 1° |
| 2026-05-05 00:23 | 28.40196 | -81.58796 | 2989 ft | 202 kts | 21° |
| 2026-05-05 00:24 | 28.41529 | -81.58264 | 3008 ft | 205 kts | 24° |
| 2026-05-05 00:24 | 28.42886 | -81.57714 | 3011 ft | 208 kts | 23° |
| 2026-05-05 00:24 | 28.44250 | -81.57150 | 3000 ft | 207 kts | 25° |
| 2026-05-05 00:24 | 28.45410 | -81.56227 | 2992 ft | 201 kts | 48° |
| 2026-05-05 00:25 | 28.46237 | -81.54972 | 2997 ft | 198 kts | 62° |
| 2026-05-05 00:25 | 28.46821 | -81.53565 | 3010 ft | 196 kts | 69° |
| 2026-05-05 00:25 | 28.47361 | -81.52135 | 3009 ft | 198 kts | 69° |
| 2026-05-05 00:25 | 28.47905 | -81.50702 | 3002 ft | 194 kts | 68° |
| 2026-05-05 00:26 | 28.48419 | -81.49352 | 2954 ft | 180 kts | 68° |
| 2026-05-05 00:26 | 28.48891 | -81.48112 | 2711 ft | 164 kts | 69° |
| 2026-05-05 00:26 | 28.49325 | -81.46969 | 2517 ft | 157 kts | 70° |
| 2026-05-05 00:26 | 28.49773 | -81.45782 | 2316 ft | 165 kts | 69° |
| 2026-05-05 00:27 | 28.50233 | -81.44573 | 2107 ft | 169 kts | 69° |
| 2026-05-05 00:27 | 28.50695 | -81.43357 | 1886 ft | 169 kts | 69° |
| 2026-05-05 00:27 | 28.51157 | -81.42146 | 1671 ft | 164 kts | 69° |
| 2026-05-05 00:27 | 28.51605 | -81.40967 | 1446 ft | 161 kts | 69° |
| 2026-05-05 00:28 | 28.52032 | -81.39844 | 1228 ft | 146 kts | 69° |
| 2026-05-05 00:28 | 28.52416 | -81.38839 | 1039 ft | 131 kts | 69° |
| 2026-05-05 00:28 | 28.52765 | -81.37918 | 871 ft | 122 kts | 69° |
| 2026-05-05 00:28 | 28.53096 | -81.37041 | 725 ft | 121 kts | 70° |
| 2026-05-05 00:29 | 28.53433 | -81.36164 | 569 ft | 120 kts | 68° |
| 2026-05-05 00:29 | 28.53756 | -81.35281 | 315 ft | 124 kts | 69° |
| 2026-05-05 00:29 | 28.54098 | -81.34406 | 261 ft | 120 kts | 70° |
| 2026-05-05 00:29 | 28.54419 | -81.33456 | 491 ft | 139 kts | 72° |
| 2026-05-05 00:30 | 28.54801 | -81.32377 | 620 ft | 160 kts | 70° |
| 2026-05-05 00:30 | 28.55227 | -81.31097 | 998 ft | 184 kts | 71° |
| 2026-05-05 00:30 | 28.55744 | -81.29698 | 1498 ft | 203 kts | 59° |
| 2026-05-05 00:30 | 28.56991 | -81.28648 | 1488 ft | 252 kts | 21° |
| 2026-05-05 00:31 | 28.58814 | -81.28574 | 1524 ft | 262 kts | 356° |
| 2026-05-05 00:31 | 28.60427 | -81.29437 | 1476 ft | 259 kts | 320° |
| 2026-05-05 00:31 | 28.61366 | -81.31151 | 1517 ft | 255 kts | 295° |
| 2026-05-05 00:31 | 28.62040 | -81.33035 | 1523 ft | 260 kts | 293° |
| 2026-05-05 00:32 | 28.62594 | -81.35002 | 1460 ft | 264 kts | 277° |
| 2026-05-05 00:32 | 28.62528 | -81.37063 | 1512 ft | 261 kts | 264° |
| 2026-05-05 00:32 | 28.62329 | -81.39112 | 1513 ft | 260 kts | 263° |
| 2026-05-05 00:32 | 28.61952 | -81.41122 | 1484 ft | 261 kts | 249° |
| 2026-05-05 00:33 | 28.61192 | -81.43055 | 1895 ft | 266 kts | 242° |
| 2026-05-05 00:33 | 28.60425 | -81.44906 | 2004 ft | 256 kts | 243° |
| 2026-05-05 00:33 | 28.59688 | -81.46712 | 1999 ft | 246 kts | 243° |
| 2026-05-05 00:33 | 28.58975 | -81.48442 | 1987 ft | 238 kts | 243° |
| 2026-05-05 00:34 | 28.58282 | -81.50126 | 1997 ft | 234 kts | 243° |
| 2026-05-05 00:34 | 28.57589 | -81.51799 | 1992 ft | 232 kts | 243° |
| 2026-05-05 00:34 | 28.56914 | -81.53476 | 1991 ft | 233 kts | 243° |
| 2026-05-05 00:34 | 28.56167 | -81.55095 | 1939 ft | 230 kts | 227° |
| 2026-05-05 00:35 | 28.54829 | -81.55940 | 1913 ft | 218 kts | 183° |
| 2026-05-05 00:35 | 28.53464 | -81.55516 | 1920 ft | 200 kts | 137° |
| 2026-05-05 00:35 | 28.52713 | -81.54248 | 2030 ft | 191 kts | 114° |
| 2026-05-05 00:35 | 28.52153 | -81.52858 | 2028 ft | 196 kts | 113° |
| 2026-05-05 00:36 | 28.51574 | -81.51425 | 2021 ft | 202 kts | 113° |
| 2026-05-05 00:36 | 28.50983 | -81.49968 | 2012 ft | 202 kts | 113° |
| 2026-05-05 00:36 | 28.50389 | -81.48519 | 2007 ft | 203 kts | 113° |
| 2026-05-05 00:36 | 28.49794 | -81.47070 | 2005 ft | 201 kts | 112° |
| 2026-05-05 00:37 | 28.49750 | -81.45550 | 1890 ft | 196 kts | 70° |
| 2026-05-05 00:37 | 28.50365 | -81.44230 | 1994 ft | 181 kts | 66° |
| 2026-05-05 00:37 | 28.50842 | -81.43002 | 1799 ft | 160 kts | 69° |
| 2026-05-05 00:37 | 28.51266 | -81.41885 | 1595 ft | 151 kts | 70° |
| 2026-05-05 00:38 | 28.51660 | -81.40848 | 1411 ft | 134 kts | 69° |
| 2026-05-05 00:38 | 28.52009 | -81.39932 | 1246 ft | 121 kts | 69° |
| 2026-05-05 00:38 | 28.52338 | -81.39065 | 1091 ft | 118 kts | 67° |
| 2026-05-05 00:38 | 28.52663 | -81.38205 | 937 ft | 118 kts | 69° |
| 2026-05-05 00:39 | 28.52987 | -81.37350 | 786 ft | 118 kts | 70° |
| 2026-05-05 00:39 | 28.53314 | -81.36475 | 621 ft | 123 kts | 69° |
| 2026-05-05 00:39 | 28.53653 | -81.35576 | 457 ft | 124 kts | 67° |
| 2026-05-05 00:39 | 28.53996 | -81.34684 | 266 ft | 123 kts | 69° |
| 2026-05-05 00:40 | 28.54329 | -81.33811 | 123 ft | 118 kts | 70° |
| 2026-05-05 00:40 | 28.54582 | -81.33126 | 117 ft | 48 kts | 62° |
| 2026-05-05 00:40 | 28.54711 | -81.32824 | 114 ft | 25 kts | 46° |
| 2026-05-05 00:40 | 28.54768 | -81.32842 | 116 ft | 5 kts | 306° |
| 2026-05-05 00:41 | 28.54781 | -81.32862 | 115 ft | 0 kts | 302° |
| 2026-05-05 00:41 | 28.54794 | -81.32884 | 116 ft | 11 kts | 305° |
| 2026-05-05 00:42 | 28.54804 | -81.32930 | 116 ft | 6 kts | 257° |
| 2026-05-05 00:42 | 28.54778 | -81.33021 | 114 ft | 15 kts | 248° |
| 2026-05-05 00:42 | 28.54741 | -81.33123 | 116 ft | 12 kts | 245° |
| 2026-05-05 00:42 | 28.54720 | -81.33208 | 116 ft | 11 kts | 265° |
| 2026-05-05 00:43 | 28.54714 | -81.33294 | 115 ft | 11 kts | 263° |
| 2026-05-05 00:43 | 28.54704 | -81.33385 | 114 ft | 12 kts | 263° |
| 2026-05-05 00:43 | 28.54698 | -81.33459 | 114 ft | 7 kts | 268° |
| 2026-05-05 00:43 | 28.54693 | -81.33503 | 114 ft | 5 kts | 263° |
| 2026-05-05 00:44 | 28.54689 | -81.33546 | 115 ft | 8 kts | 265° |
| 2026-05-05 00:44 | 28.54697 | -81.33622 | 113 ft | 9 kts | 308° |
| 2026-05-05 00:44 | 28.54735 | -81.33672 | 115 ft | 8 kts | 311° |
| 2026-05-05 00:44 | 28.54765 | -81.33716 | 115 ft | 6 kts | 308° |
| 2026-05-05 00:45 | 28.54783 | -81.33740 | 114 ft | 0 kts | 312° |
| 2026-05-05 00:45 | 28.54784 | -81.33741 | 115 ft | 0 kts | 308° |